This is the latest recevied weather packets stored in our database for station/object K9JWM. If no packets are shown the sender has not sent any weather packets the latest 10 day(s).
| Time | Temp. | Humidity | Pressure | Rain* | Wind** | Luminosity | Snow |
|---|---|---|---|---|---|---|---|
| 1777269294 | 3.89° C | 90% | 1014.5 hPa | 0 mm | - | - | - |
| 1777268393 | 4.44° C | 91% | 1014.7 hPa | 0 mm | - | - | - |
| 1777267494 | 4.44° C | 91% | 1015 hPa | 0 mm | - | - | - |
| 1777266594 | 3.89° C | 92% | 1015.5 hPa | 0 mm | - | - | - |
| 1777265693 | 3.89° C | 92% | 1015.6 hPa | 0 mm | - | - | - |
| 1777264793 | 3.89° C | 92% | 1015.7 hPa | 0 mm | - | - | - |
| 1777263894 | 3.89° C | 93% | 1015.8 hPa | 0 mm | - | - | - |
| 1777262994 | 3.89° C | 93% | 1016 hPa | 0 mm | - | - | - |
| 1777262093 | 3.33° C | 93% | 1016.4 hPa | 0 mm | - | - | - |
| 1777261193 | 3.33° C | 93% | 1016.8 hPa | 0 mm | - | - | - |
| 1777260292 | 3.33° C | 92% | 1016.9 hPa | 0 mm | - | - | - |
| 1777259394 | 3.33° C | 92% | 1017.2 hPa | 0 mm | - | - | - |
| 1777258492 | 3.33° C | 92% | 1017.3 hPa | 0 mm | - | - | - |
| 1777257594 | 3.33° C | 91% | 1017.3 hPa | 0 mm | - | - | - |
| 1777256694 | 3.33° C | 91% | 1017.4 hPa | 0 mm | - | - | - |
| 1777255794 | 3.89° C | 90% | 1017.3 hPa | 0 mm | - | - | - |
| 1777254894 | 3.89° C | 90% | 1017.5 hPa | 0 mm | - | - | - |
| 1777253994 | 3.89° C | 89% | 1017.6 hPa | 0 mm | - | - | - |
| 1777253093 | 4.44° C | 89% | 1017.7 hPa | 0 mm | - | - | - |
| 1777252192 | 4.44° C | 88% | 1017.6 hPa | 0 mm | - | - | - |
| 1777251295 | 5° C | 87% | 1017.6 hPa | 0 mm | - | - | - |
| 1777250394 | 5° C | 87% | 1017.7 hPa | 0 mm | - | - | - |
| 1777249494 | 5.56° C | 86% | 1017.4 hPa | 0 mm | - | - | - |
| 1777248595 | 6.11° C | 84% | 1017.4 hPa | 0 mm | - | - | - |
| 1777247696 | 6.11° C | 83% | 1017.4 hPa | 0 mm | - | - | - |
* Rain latest hour (hover to see other rain measurements)
** Current wind speed in m/s (hover to see current wind gust speed)